sensor_id;sensor_type;location;lat;lon;timestamp;temperature;humidity
16968;DHT22;64862;54.398;10.126;2023-12-04T00:08:10;1.40;99.90
16968;DHT22;64862;54.398;10.126;2023-12-04T00:18:13;1.40;99.90
16968;DHT22;64862;54.398;10.126;2023-12-04T00:28:16;1.40;99.90
16968;DHT22;64862;54.398;10.126;2023-12-04T00:38:19;1.50;99.90
16968;DHT22;64862;54.398;10.126;2023-12-04T00:48:23;1.40;99.90
16968;DHT22;64862;54.398;10.126;2023-12-04T00:58:26;1.40;99.90
16968;DHT22;64862;54.398;10.126;2023-12-04T01:08:29;1.40;99.90
16968;DHT22;64862;54.398;10.126;2023-12-04T01:18:32;1.20;99.90
16968;DHT22;64862;54.398;10.126;2023-12-04T01:28:35;1.20;99.90
16968;DHT22;64862;54.398;10.126;2023-12-04T01:38:38;1.20;99.90
16968;DHT22;64862;54.398;10.126;2023-12-04T01:48:43;1.20;99.90
16968;DHT22;64862;54.398;10.126;2023-12-04T01:58:46;1.10;99.90
16968;DHT22;64862;54.398;10.126;2023-12-04T02:08:51;1.10;99.90
16968;DHT22;64862;54.398;10.126;2023-12-04T02:18:54;1.00;99.90
16968;DHT22;64862;54.398;10.126;2023-12-04T02:29:05;1.00;99.90
16968;DHT22;64862;54.398;10.126;2023-12-04T02:39:09;0.90;99.90
16968;DHT22;64862;54.398;10.126;2023-12-04T02:49:13;0.80;99.90
16968;DHT22;64862;54.398;10.126;2023-12-04T02:59:17;0.80;99.90
16968;DHT22;64862;54.398;10.126;2023-12-04T03:09:20;0.70;99.90
16968;DHT22;64862;54.398;10.126;2023-12-04T03:19:23;0.60;99.90
16968;DHT22;64862;54.398;10.126;2023-12-04T03:29:26;0.60;99.90
16968;DHT22;64862;54.398;10.126;2023-12-04T03:39:29;0.50;99.90
16968;DHT22;64862;54.398;10.126;2023-12-04T03:49:34;0.50;99.90
16968;DHT22;64862;54.398;10.126;2023-12-04T03:59:37;0.60;99.90
16968;DHT22;64862;54.398;10.126;2023-12-04T04:09:41;0.50;99.90
16968;DHT22;64862;54.398;10.126;2023-12-04T04:19:44;0.40;99.90
16968;DHT22;64862;54.398;10.126;2023-12-04T04:29:48;0.40;99.90
16968;DHT22;64862;54.398;10.126;2023-12-04T04:39:51;0.40;99.90
16968;DHT22;64862;54.398;10.126;2023-12-04T04:49:54;0.30;99.90
16968;DHT22;64862;54.398;10.126;2023-12-04T04:59:57;0.20;99.90
16968;DHT22;64862;54.398;10.126;2023-12-04T05:10:00;0.00;99.90
16968;DHT22;64862;54.398;10.126;2023-12-04T05:20:04;0.00;99.90
16968;DHT22;64862;54.398;10.126;2023-12-04T05:30:12;0.00;99.90
16968;DHT22;64862;54.398;10.126;2023-12-04T05:40:15;0.10;99.90
16968;DHT22;64862;54.398;10.126;2023-12-04T05:50:19;0.00;99.90
16968;DHT22;64862;54.398;10.126;2023-12-04T06:00:21;-0.10;99.90
16968;DHT22;64862;54.398;10.126;2023-12-04T06:10:24;-0.30;99.90
16968;DHT22;64862;54.398;10.126;2023-12-04T06:20:27;-0.20;99.90
16968;DHT22;64862;54.398;10.126;2023-12-04T06:30:32;-0.10;99.90
16968;DHT22;64862;54.398;10.126;2023-12-04T06:40:36;0.10;99.90
16968;DHT22;64862;54.398;10.126;2023-12-04T06:50:41;0.30;99.90
16968;DHT22;64862;54.398;10.126;2023-12-04T07:00:43;0.30;99.90
16968;DHT22;64862;54.398;10.126;2023-12-04T07:10:48;0.30;99.90
16968;DHT22;64862;54.398;10.126;2023-12-04T07:20:52;0.40;99.90
16968;DHT22;64862;54.398;10.126;2023-12-04T07:30:56;0.40;99.90
16968;DHT22;64862;54.398;10.126;2023-12-04T07:40:58;0.40;99.90
16968;DHT22;64862;54.398;10.126;2023-12-04T07:51:02;0.40;99.90
16968;DHT22;64862;54.398;10.126;2023-12-04T08:01:04;0.40;99.90
16968;DHT22;64862;54.398;10.126;2023-12-04T08:11:11;0.60;99.90
16968;DHT22;64862;54.398;10.126;2023-12-04T08:21:13;0.60;99.90
16968;DHT22;64862;54.398;10.126;2023-12-04T08:31:19;0.70;99.90
16968;DHT22;64862;54.398;10.126;2023-12-04T08:41:21;0.80;99.90
16968;DHT22;64862;54.398;10.126;2023-12-04T08:51:25;0.70;99.90
16968;DHT22;64862;54.398;10.126;2023-12-04T09:01:27;0.80;99.90
16968;DHT22;64862;54.398;10.126;2023-12-04T09:11:30;0.80;99.90
16968;DHT22;64862;54.398;10.126;2023-12-04T09:21:32;0.90;99.90
16968;DHT22;64862;54.398;10.126;2023-12-04T09:31:36;1.00;99.90
16968;DHT22;64862;54.398;10.126;2023-12-04T09:41:40;1.00;99.90
16968;DHT22;64862;54.398;10.126;2023-12-04T09:51:45;1.00;99.90
16968;DHT22;64862;54.398;10.126;2023-12-04T10:01:48;1.10;99.90
16968;DHT22;64862;54.398;10.126;2023-12-04T10:11:54;1.10;99.90
16968;DHT22;64862;54.398;10.126;2023-12-04T10:21:58;1.10;99.90
16968;DHT22;64862;54.398;10.126;2023-12-04T10:32:02;1.10;99.90
16968;DHT22;64862;54.398;10.126;2023-12-04T10:42:06;1.20;99.90
16968;DHT22;64862;54.398;10.126;2023-12-04T10:52:09;1.20;99.90
16968;DHT22;64862;54.398;10.126;2023-12-04T11:02:19;1.20;99.90
16968;DHT22;64862;54.398;10.126;2023-12-04T11:12:25;1.30;99.90
16968;DHT22;64862;54.398;10.126;2023-12-04T11:22:30;1.30;99.90
16968;DHT22;64862;54.398;10.126;2023-12-04T11:32:43;1.30;99.90
16968;DHT22;64862;54.398;10.126;2023-12-04T11:42:46;1.40;99.90
16968;DHT22;64862;54.398;10.126;2023-12-04T11:52:50;1.40;99.90
16968;DHT22;64862;54.398;10.126;2023-12-04T12:03:02;1.50;99.90
16968;DHT22;64862;54.398;10.126;2023-12-04T12:13:10;1.50;99.90
16968;DHT22;64862;54.398;10.126;2023-12-04T12:23:13;1.40;99.90
16968;DHT22;64862;54.398;10.126;2023-12-04T12:33:17;1.40;99.90
16968;DHT22;64862;54.398;10.126;2023-12-04T12:43:21;1.30;99.90
16968;DHT22;64862;54.398;10.126;2023-12-04T12:53:26;1.30;99.90
16968;DHT22;64862;54.398;10.126;2023-12-04T13:03:30;1.20;99.90
16968;DHT22;64862;54.398;10.126;2023-12-04T13:13:34;1.20;99.90
16968;DHT22;64862;54.398;10.126;2023-12-04T13:23:36;1.20;99.90
16968;DHT22;64862;54.398;10.126;2023-12-04T13:33:40;1.20;99.90
16968;DHT22;64862;54.398;10.126;2023-12-04T13:43:43;1.10;99.90
16968;DHT22;64862;54.398;10.126;2023-12-04T13:53:53;1.10;99.90
16968;DHT22;64862;54.398;10.126;2023-12-04T14:04:03;1.10;99.90
16968;DHT22;64862;54.398;10.126;2023-12-04T14:14:08;1.20;99.90
16968;DHT22;64862;54.398;10.126;2023-12-04T14:24:11;1.20;99.90
16968;DHT22;64862;54.398;10.126;2023-12-04T14:34:14;1.20;99.90
16968;DHT22;64862;54.398;10.126;2023-12-04T14:44:17;1.10;99.90
16968;DHT22;64862;54.398;10.126;2023-12-04T14:54:21;1.10;99.90
16968;DHT22;64862;54.398;10.126;2023-12-04T15:04:36;1.10;99.90
16968;DHT22;64862;54.398;10.126;2023-12-04T15:14:57;1.10;99.90
16968;DHT22;64862;54.398;10.126;2023-12-04T15:25:13;1.10;99.90
16968;DHT22;64862;54.398;10.126;2023-12-04T15:35:17;1.20;99.90
16968;DHT22;64862;54.398;10.126;2023-12-04T15:45:19;1.10;99.90
16968;DHT22;64862;54.398;10.126;2023-12-04T15:55:23;1.20;99.90
16968;DHT22;64862;54.398;10.126;2023-12-04T16:05:28;1.20;99.90
16968;DHT22;64862;54.398;10.126;2023-12-04T16:15:32;1.20;99.90
16968;DHT22;64862;54.398;10.126;2023-12-04T16:25:35;1.20;99.90
16968;DHT22;64862;54.398;10.126;2023-12-04T16:35:41;1.20;99.90
16968;DHT22;64862;54.398;10.126;2023-12-04T16:45:44;1.20;99.90
16968;DHT22;64862;54.398;10.126;2023-12-04T16:55:48;1.20;99.90
16968;DHT22;64862;54.398;10.126;2023-12-04T17:05:51;1.20;99.90
16968;DHT22;64862;54.398;10.126;2023-12-04T17:15:57;1.20;99.90
16968;DHT22;64862;54.398;10.126;2023-12-04T17:26:01;1.20;99.90
16968;DHT22;64862;54.398;10.126;2023-12-04T17:36:07;1.20;99.90
16968;DHT22;64862;54.398;10.126;2023-12-04T17:46:11;1.20;99.90
16968;DHT22;64862;54.398;10.126;2023-12-04T17:56:16;1.20;99.90
16968;DHT22;64862;54.398;10.126;2023-12-04T18:06:25;1.10;99.90
16968;DHT22;64862;54.398;10.126;2023-12-04T18:16:29;1.10;99.90
16968;DHT22;64862;54.398;10.126;2023-12-04T18:26:33;1.20;99.90
16968;DHT22;64862;54.398;10.126;2023-12-04T18:36:41;1.10;99.90
16968;DHT22;64862;54.398;10.126;2023-12-04T18:46:44;1.20;99.90
16968;DHT22;64862;54.398;10.126;2023-12-04T18:56:48;1.20;99.90
16968;DHT22;64862;54.398;10.126;2023-12-04T19:06:51;1.20;99.90
16968;DHT22;64862;54.398;10.126;2023-12-04T19:16:57;1.20;99.90
16968;DHT22;64862;54.398;10.126;2023-12-04T19:26:59;1.20;99.90
16968;DHT22;64862;54.398;10.126;2023-12-04T19:37:03;1.20;99.90
16968;DHT22;64862;54.398;10.126;2023-12-04T19:47:07;1.10;99.90
16968;DHT22;64862;54.398;10.126;2023-12-04T19:57:11;1.10;99.90
16968;DHT22;64862;54.398;10.126;2023-12-04T20:07:14;1.10;99.90
16968;DHT22;64862;54.398;10.126;2023-12-04T20:17:18;1.10;99.90
16968;DHT22;64862;54.398;10.126;2023-12-04T20:27:21;1.10;99.90
16968;DHT22;64862;54.398;10.126;2023-12-04T20:37:25;1.10;99.90
16968;DHT22;64862;54.398;10.126;2023-12-04T20:47:27;1.20;99.90
16968;DHT22;64862;54.398;10.126;2023-12-04T20:57:30;1.20;99.90
16968;DHT22;64862;54.398;10.126;2023-12-04T21:07:32;1.20;99.90
16968;DHT22;64862;54.398;10.126;2023-12-04T21:17:37;1.20;99.90
16968;DHT22;64862;54.398;10.126;2023-12-04T21:27:40;1.10;99.90
16968;DHT22;64862;54.398;10.126;2023-12-04T21:37:43;1.10;99.90
16968;DHT22;64862;54.398;10.126;2023-12-04T21:47:45;1.10;99.90
16968;DHT22;64862;54.398;10.126;2023-12-04T21:57:48;1.00;99.90
16968;DHT22;64862;54.398;10.126;2023-12-04T22:07:51;1.00;99.90
16968;DHT22;64862;54.398;10.126;2023-12-04T22:17:54;1.00;99.90
16968;DHT22;64862;54.398;10.126;2023-12-04T22:27:56;1.00;99.90
16968;DHT22;64862;54.398;10.126;2023-12-04T22:38:00;1.00;99.90
16968;DHT22;64862;54.398;10.126;2023-12-04T22:48:02;1.10;99.90
16968;DHT22;64862;54.398;10.126;2023-12-04T22:58:05;1.10;99.90
16968;DHT22;64862;54.398;10.126;2023-12-04T23:08:07;1.20;99.90
16968;DHT22;64862;54.398;10.126;2023-12-04T23:18:10;1.20;99.90
16968;DHT22;64862;54.398;10.126;2023-12-04T23:28:12;1.20;99.90
16968;DHT22;64862;54.398;10.126;2023-12-04T23:38:16;1.20;99.90
16968;DHT22;64862;54.398;10.126;2023-12-04T23:48:18;1.30;99.90
16968;DHT22;64862;54.398;10.126;2023-12-04T23:58:21;1.30;99.90
